Aviation Digital Data Service (ADDS)

Output produced by METARs form (0508 UTC 28 September 2016)
found at http://aviationweather.gov/adds/metars/
 
KJFK 280239Z 2803/2906 VRB04KT P6SM SCT250 
     FM280600 03006KT P6SM SCT250 
     FM281500 05012G17KT P6SM BKN025 
     FM281800 05014G21KT P6SM -RA BKN020 
     FM290300 05014G21KT P6SM -RA BKN015